Time;durP1;ratioP1;P1;durP2;ratioP2;P2;SDS_P1;SDS_P2;PMS_P1;PMS_P2;Temp;Humidity;BMP_temperature;BMP_pressure;BME280_temperature;BME280_humidity;BME280_pressure;Samples;Min_cycle;Max_cycle;Signal;HPM_P1;HPM_P2
2022/07/13 00:00:44;;;;;;;1.63;0.40;;;;;;;26.21;49.01;101645.63;7383976;19;20330;-62
2022/07/13 00:03:12;;;;;;;1.33;0.40;;;;;;;26.20;48.74;101655.59;7382465;19;20025;-62
2022/07/13 00:05:40;;;;;;;1.90;0.30;;;;;;;26.16;48.57;101649.00;7383994;19;20044;-62
2022/07/13 00:08:06;;;;;;;2.67;0.40;;;;;;;26.14;48.83;101644.91;7383113;19;20355;-62
2022/07/13 00:10:33;;;;;;;1.60;0.30;;;;;;;26.12;49.16;101650.53;7383679;19;20014;-64
2022/07/13 00:13:00;;;;;;;2.38;0.40;;;;;;;26.10;49.41;101647.28;7383775;19;20427;-61
2022/07/13 00:15:27;;;;;;;1.85;0.40;;;;;;;26.08;49.40;101648.53;7376974;19;20029;-63
2022/07/13 00:17:54;;;;;;;1.85;0.30;;;;;;;26.07;48.71;101644.19;7383259;19;20019;-63
2022/07/13 00:20:21;;;;;;;0.52;0.30;;;;;;;26.06;49.51;101659.56;7383759;19;20014;-63
2022/07/13 00:22:48;;;;;;;2.05;0.30;;;;;;;26.04;49.01;101650.06;7381896;19;20130;-63
2022/07/13 00:25:16;;;;;;;1.08;0.30;;;;;;;26.07;51.60;101641.50;7382619;19;20090;-62
2022/07/13 00:27:43;;;;;;;1.00;0.30;;;;;;;26.05;49.28;101641.75;7384899;19;20020;-61
2022/07/13 00:30:10;;;;;;;0.80;0.28;;;;;;;26.05;48.54;101647.16;7386017;19;20558;-62
2022/07/13 00:32:37;;;;;;;2.15;0.30;;;;;;;26.04;49.47;101653.59;7382222;19;20014;-62
2022/07/13 00:35:05;;;;;;;1.50;0.30;;;;;;;26.03;49.87;101651.94;7383980;19;20011;-65
2022/07/13 00:37:32;;;;;;;0.88;0.30;;;;;;;26.01;49.20;101650.56;7383366;19;20019;-61
2022/07/13 00:39:59;;;;;;;0.50;0.28;;;;;;;26.00;48.63;101647.03;7381027;19;20086;-65
2022/07/13 00:42:26;;;;;;;0.75;0.20;;;;;;;26.00;48.32;101648.91;7382706;19;20376;-62
2022/07/13 00:44:53;;;;;;;1.60;0.30;;;;;;;25.98;48.28;101651.84;7379117;19;20018;-61
2022/07/13 00:47:20;;;;;;;1.15;0.40;;;;;;;25.99;50.39;101648.09;7383562;19;20487;-62
2022/07/13 00:49:47;;;;;;;0.85;0.30;;;;;;;25.98;48.58;101646.44;7383580;19;20038;-61
2022/07/13 00:52:15;;;;;;;1.17;0.32;;;;;;;25.95;48.17;101641.53;7381741;19;20021;-63
2022/07/13 00:54:43;;;;;;;0.80;0.30;;;;;;;25.93;48.89;101641.75;7381819;19;20015;-62
2022/07/13 00:57:13;;;;;;;0.73;0.30;;;;;;;25.93;48.15;101635.53;7381561;19;20434;-62
2022/07/13 00:59:40;;;;;;;1.30;0.35;;;;;;;25.91;47.88;101633.06;7383033;19;20078;-62
2022/07/13 01:02:07;;;;;;;4.63;0.52;;;;;;;25.91;48.21;101640.31;7381432;19;20010;-63
2022/07/13 01:04:34;;;;;;;1.27;0.40;;;;;;;25.90;49.06;101639.53;7384156;19;20359;-62
2022/07/13 01:07:01;;;;;;;1.00;0.40;;;;;;;25.89;48.35;101629.78;7381044;19;20146;-63
2022/07/13 01:09:30;;;;;;;2.83;0.30;;;;;;;25.90;48.60;101636.00;7378878;19;20017;-63
2022/07/13 01:11:58;;;;;;;0.50;0.22;;;;;;;25.88;47.17;101633.53;7382215;19;20020;-62
2022/07/13 01:14:27;;;;;;;1.98;0.30;;;;;;;25.88;47.41;101632.72;7383414;19;20018;-63
2022/07/13 01:16:54;;;;;;;2.17;0.30;;;;;;;25.87;47.59;101626.50;7380791;19;20017;-62
2022/07/13 01:19:22;;;;;;;1.33;0.30;;;;;;;25.85;47.40;101628.59;7383077;19;20019;-62
2022/07/13 01:21:54;;;;;;;2.03;0.30;;;;;;;25.83;47.90;101630.72;7380680;19;20014;-63
2022/07/13 01:24:21;;;;;;;0.93;0.30;;;;;;;25.84;47.97;101623.44;7382580;19;20096;-62
2022/07/13 01:26:48;;;;;;;0.88;0.20;;;;;;;25.82;48.02;101630.94;7382772;19;20290;-62
2022/07/13 01:29:15;;;;;;;2.42;0.30;;;;;;;25.82;47.42;101633.66;7383454;19;20014;-62
2022/07/13 01:31:42;;;;;;;1.58;0.20;;;;;;;25.79;47.69;101634.94;7380821;19;20078;-62
2022/07/13 01:34:09;;;;;;;2.55;0.40;;;;;;;25.78;48.35;101630.59;7382118;19;20086;-62
2022/07/13 01:36:46;;;;;;;1.13;0.30;;;;;;;25.76;47.62;101626.47;7379980;19;20519;-62
2022/07/13 01:39:13;;;;;;;0.75;0.30;;;;;;;25.75;48.14;101622.16;7378785;19;20014;-62
2022/07/13 01:41:40;;;;;;;1.27;0.30;;;;;;;25.72;48.21;101630.69;7381292;19;20010;-63
2022/07/13 01:44:07;;;;;;;1.48;0.30;;;;;;;25.72;48.68;101623.44;7382548;19;20018;-63
2022/07/13 01:46:40;;;;;;;1.58;0.30;;;;;;;25.71;48.62;101623.66;7380846;19;20774;-63
2022/07/13 01:49:07;;;;;;;0.88;0.30;;;;;;;25.69;48.24;101626.63;7381177;19;20022;-62
2022/07/13 01:51:35;;;;;;;0.70;0.38;;;;;;;25.70;47.91;101625.53;7388481;19;20003;-63
2022/07/13 01:54:03;;;;;;;2.45;0.50;;;;;;;25.68;48.35;101626.84;7387233;19;20015;-61
2022/07/13 01:56:32;;;;;;;1.48;0.40;;;;;;;25.66;48.40;101626.25;7385267;19;20091;-62
2022/07/13 01:59:01;;;;;;;0.90;0.30;;;;;;;25.62;47.88;101619.66;7388296;19;20025;-61
2022/07/13 02:01:28;;;;;;;0.80;0.30;;;;;;;25.61;48.53;101624.25;7388419;19;20018;-61
2022/07/13 02:03:55;;;;;;;0.82;0.40;;;;;;;25.61;48.29;101621.53;7387969;19;20018;-63
2022/07/13 02:06:22;;;;;;;2.13;0.40;;;;;;;25.60;47.74;101613.72;7387563;19;20006;-62
2022/07/13 02:08:49;;;;;;;0.90;0.30;;;;;;;25.59;48.63;101614.75;7385980;19;20468;-62
2022/07/13 02:11:19;;;;;;;1.33;0.38;;;;;;;25.58;48.39;101616.63;7389823;19;20015;-61
2022/07/13 02:13:47;;;;;;;2.45;0.38;;;;;;;25.57;47.92;101614.16;7386716;19;20017;-61
2022/07/13 02:16:15;;;;;;;2.40;0.50;;;;;;;25.55;48.32;101617.06;7389314;19;20014;-61
2022/07/13 02:18:42;;;;;;;3.10;0.40;;;;;;;25.52;48.37;101614.81;7388551;19;20018;-61
2022/07/13 02:21:10;;;;;;;1.52;0.60;;;;;;;25.49;48.68;101616.13;7388089;19;20082;-63
2022/07/13 02:23:38;;;;;;;1.45;0.40;;;;;;;25.49;48.55;101620.69;7387275;19;20041;-63
2022/07/13 02:26:05;;;;;;;1.67;0.57;;;;;;;25.50;48.44;101617.75;7386974;19;20021;-62
2022/07/13 02:28:32;;;;;;;1.35;0.30;;;;;;;25.47;48.92;101615.53;7388195;19;20357;-62
2022/07/13 02:31:09;;;;;;;1.50;0.40;;;;;;;25.44;49.11;101609.78;7387245;19;20086;-62
2022/07/13 02:33:43;;;;;;;1.00;0.40;;;;;;;25.41;49.37;101611.06;7388095;19;20082;-62
2022/07/13 02:36:21;;;;;;;2.15;0.30;;;;;;;25.40;48.94;101612.09;7388554;19;20047;-61
2022/07/13 02:38:50;;;;;;;1.33;0.45;;;;;;;25.38;49.60;101619.63;7384128;19;20027;-62
2022/07/13 02:41:18;;;;;;;2.40;0.40;;;;;;;25.37;50.17;101617.13;7387613;19;20344;-62
2022/07/13 02:43:45;;;;;;;1.75;0.40;;;;;;;25.34;49.79;101623.81;7388596;19;20037;-62
2022/07/13 02:46:12;;;;;;;1.02;0.30;;;;;;;25.35;49.86;101624.63;7388703;19;20018;-62
2022/07/13 02:48:40;;;;;;;0.85;0.30;;;;;;;25.35;49.16;101621.94;7385295;19;20010;-62
2022/07/13 02:51:07;;;;;;;1.95;0.32;;;;;;;25.32;49.21;101620.53;7388569;19;20078;-62
2022/07/13 02:53:34;;;;;;;1.20;0.40;;;;;;;25.30;49.28;101614.53;7385256;19;20399;-61
2022/07/13 02:56:02;;;;;;;2.33;0.40;;;;;;;25.28;49.73;101618.53;7388188;19;20034;-61
2022/07/13 02:58:29;;;;;;;0.50;0.40;;;;;;;25.25;50.26;101616.28;7387308;19;20039;-61
2022/07/13 03:00:56;;;;;;;1.42;0.30;;;;;;;25.22;50.35;101622.97;7387788;19;20007;-62
2022/07/13 03:03:24;;;;;;;1.25;0.40;;;;;;;25.22;51.11;101622.13;7385972;19;20019;-61
2022/07/13 03:05:51;;;;;;;2.10;0.40;;;;;;;25.22;51.36;101624.84;7387010;19;20014;-62
2022/07/13 03:08:18;;;;;;;2.45;0.40;;;;;;;25.20;50.08;101622.34;7385073;19;20015;-63
2022/07/13 03:10:46;;;;;;;2.22;0.40;;;;;;;25.21;49.76;101621.31;7387278;19;20018;-63
2022/07/13 03:13:14;;;;;;;1.52;0.30;;;;;;;25.15;50.01;101614.13;7386666;19;20014;-63
2022/07/13 03:15:41;;;;;;;2.03;0.40;;;;;;;25.12;49.96;101612.75;7386949;19;20018;-61
2022/07/13 03:18:08;;;;;;;1.40;0.30;;;;;;;25.11;50.40;101611.09;7386263;19;20090;-61
2022/07/13 03:20:35;;;;;;;0.88;0.47;;;;;;;25.09;50.28;101615.09;7383674;19;20025;-64
2022/07/13 03:23:01;;;;;;;1.13;0.30;;;;;;;25.02;50.66;101617.88;7385513;19;20560;-61
2022/07/13 03:25:28;;;;;;;1.10;0.40;;;;;;;24.99;50.60;101612.13;7383773;19;20010;-61
2022/07/13 03:27:55;;;;;;;1.17;0.40;;;;;;;24.96;50.79;101616.06;7386759;19;20038;-63
2022/07/13 03:30:22;;;;;;;1.02;0.30;;;;;;;24.91;51.41;101615.13;7385690;19;20016;-61
2022/07/13 03:32:49;;;;;;;1.10;0.30;;;;;;;24.87;51.32;101620.16;7387267;19;20010;-62
2022/07/13 03:35:16;;;;;;;1.63;0.50;;;;;;;24.85;50.99;101608.72;7385896;19;20027;-61
2022/07/13 03:37:43;;;;;;;0.95;0.32;;;;;;;24.83;51.53;101600.09;7384799;19;20015;-61
2022/07/13 03:40:11;;;;;;;2.28;0.40;;;;;;;24.82;51.66;101611.06;7384429;19;20560;-63
2022/07/13 03:42:38;;;;;;;1.00;0.30;;;;;;;24.79;51.22;101615.03;7384053;19;20066;-61
2022/07/13 03:45:06;;;;;;;2.25;0.60;;;;;;;24.75;51.43;101604.94;7384783;19;20102;-62
2022/07/13 03:47:32;;;;;;;1.67;0.40;;;;;;;24.72;51.61;101606.22;7386178;19;20014;-66
2022/07/13 03:50:00;;;;;;;3.10;0.50;;;;;;;24.67;51.95;101609.59;7384954;19;20074;-62
2022/07/13 03:52:26;;;;;;;1.27;0.38;;;;;;;24.67;51.75;101608.78;7387115;19;20070;-62
2022/07/13 03:54:53;;;;;;;1.70;0.40;;;;;;;24.63;52.48;101608.41;7383511;19;20367;-63
2022/07/13 03:57:20;;;;;;;0.75;0.32;;;;;;;24.64;51.97;101609.22;7385936;19;20410;-62
2022/07/13 03:59:47;;;;;;;4.40;0.50;;;;;;;24.61;52.19;101609.69;7386062;19;20019;-63
2022/07/13 04:02:14;;;;;;;0.70;0.30;;;;;;;24.60;52.79;101610.72;7383096;19;20014;-62
2022/07/13 04:04:41;;;;;;;1.30;0.30;;;;;;;24.57;51.89;101608.50;7383241;19;20103;-62
2022/07/13 04:07:08;;;;;;;0.50;0.30;;;;;;;24.57;53.03;101608.50;7382144;19;20028;-61
2022/07/13 04:09:35;;;;;;;1.80;0.30;;;;;;;24.55;51.77;101615.97;7381896;19;20006;-62
2022/07/13 04:12:02;;;;;;;0.93;0.35;;;;;;;24.53;52.29;101610.00;7385029;19;20508;-62
2022/07/13 04:14:29;;;;;;;2.10;0.30;;;;;;;24.53;51.24;101612.69;7385685;19;20014;-62
2022/07/13 04:16:56;;;;;;;1.08;0.40;;;;;;;24.49;51.56;101614.16;7385552;19;20019;-62
2022/07/13 04:19:23;;;;;;;0.95;0.30;;;;;;;24.48;51.59;101616.03;7386252;19;20074;-61
2022/07/13 04:21:51;;;;;;;1.67;0.20;;;;;;;24.45;51.84;101608.41;7384059;19;20070;-62
2022/07/13 04:24:21;;;;;;;1.00;0.30;;;;;;;24.43;51.92;101604.31;7383502;19;20018;-63
2022/07/13 04:26:48;;;;;;;0.75;0.30;;;;;;;24.40;51.58;101610.13;7386034;19;20018;-63
2022/07/13 04:29:15;;;;;;;1.08;0.45;;;;;;;24.40;51.91;101608.28;7384762;19;20087;-62
2022/07/13 04:31:42;;;;;;;0.65;0.30;;;;;;;24.44;51.97;101612.16;7386124;19;20042;-62
2022/07/13 04:34:09;;;;;;;1.70;0.25;;;;;;;24.42;51.74;101614.25;7384518;19;20034;-62
2022/07/13 04:36:36;;;;;;;0.82;0.20;;;;;;;24.40;51.54;101623.59;7382670;19;20375;-62
2022/07/13 04:39:03;;;;;;;0.70;0.30;;;;;;;24.36;51.30;101620.53;7381390;19;20106;-62
2022/07/13 04:41:30;;;;;;;0.50;0.20;;;;;;;24.37;51.37;101624.06;7382856;19;20026;-61
2022/07/13 04:43:56;;;;;;;1.38;0.20;;;;;;;24.35;51.47;101626.13;7380064;19;20025;-61
2022/07/13 04:46:24;;;;;;;1.05;0.30;;;;;;;24.28;51.48;101627.03;7383357;19;20006;-61
2022/07/13 04:48:51;;;;;;;0.93;0.20;;;;;;;24.28;51.29;101632.41;7383998;19;20010;-61
2022/07/13 04:51:18;;;;;;;1.95;0.30;;;;;;;24.27;51.44;101635.34;7384236;19;20037;-61
2022/07/13 04:53:45;;;;;;;1.67;0.38;;;;;;;24.24;51.79;101631.22;7380238;19;20017;-62
2022/07/13 04:56:13;;;;;;;0.95;0.25;;;;;;;24.17;51.37;101635.84;7381988;19;20382;-62
2022/07/13 04:58:40;;;;;;;0.88;0.30;;;;;;;24.14;51.65;101633.56;7384177;19;20018;-62
2022/07/13 05:01:07;;;;;;;1.00;0.30;;;;;;;24.08;51.87;101634.44;7383228;19;20052;-62
2022/07/13 05:03:53;;;;;;;0.88;0.20;;;;;;;24.06;52.37;101622.28;7380452;19;20015;-62
2022/07/13 05:06:20;;;;;;;1.92;0.20;;;;;;;24.04;52.25;101627.88;7383451;19;20707;-62
2022/07/13 05:08:47;;;;;;;1.27;0.30;;;;;;;24.05;52.18;101636.75;7380350;19;20452;-62
2022/07/13 05:11:14;;;;;;;0.60;0.28;;;;;;;24.06;52.78;101636.56;7382717;19;20356;-62
2022/07/13 05:13:41;;;;;;;1.02;0.30;;;;;;;24.04;52.29;101635.09;7384174;19;20681;-62
2022/07/13 05:16:08;;;;;;;1.23;0.30;;;;;;;24.03;52.60;101641.53;7382716;19;20127;-62
2022/07/13 05:18:35;;;;;;;1.63;0.30;;;;;;;24.02;52.72;101639.91;7383406;19;20022;-62
2022/07/13 05:21:02;;;;;;;0.70;0.20;;;;;;;24.01;52.83;101640.94;7384581;19;20819;-62
2022/07/13 05:23:31;;;;;;;1.05;0.30;;;;;;;24.00;53.24;101645.50;7387410;19;20025;-62
2022/07/13 05:25:58;;;;;;;2.20;0.30;;;;;;;24.01;53.01;101651.69;7390086;19;20040;-62
2022/07/13 05:28:25;;;;;;;1.27;0.30;;;;;;;24.00;53.03;101650.06;7390310;19;20026;-62
2022/07/13 05:30:52;;;;;;;0.93;0.20;;;;;;;24.02;53.23;101647.97;7390502;19;20024;-63
2022/07/13 05:33:20;;;;;;;1.15;0.30;;;;;;;23.96;52.87;101649.69;7390752;19;20045;-67
2022/07/13 05:35:47;;;;;;;3.88;0.40;;;;;;;23.95;53.24;101660.66;7386174;19;20026;-66
2022/07/13 05:38:14;;;;;;;0.93;0.30;;;;;;;23.88;53.51;101660.69;7384316;19;20018;-66
2022/07/13 05:40:41;;;;;;;0.80;0.30;;;;;;;23.87;53.66;101654.50;7389779;19;20316;-66
2022/07/13 05:43:12;;;;;;;1.17;0.50;;;;;;;23.87;53.55;101667.94;7388374;19;20517;-65
2022/07/13 05:45:39;;;;;;;1.30;0.30;;;;;;;23.80;54.37;101669.88;7390170;19;20514;-66
2022/07/13 05:48:06;;;;;;;2.83;0.47;;;;;;;23.77;55.12;101677.56;7391408;19;20026;-66
2022/07/13 05:50:38;;;;;;;2.00;0.30;;;;;;;23.76;55.16;101674.06;7387894;19;20010;-65
2022/07/13 05:53:05;;;;;;;1.73;0.40;;;;;;;23.75;55.05;101672.41;7389152;19;20011;-65
2022/07/13 05:55:32;;;;;;;1.65;0.30;;;;;;;23.71;56.36;101673.06;7386985;19;20410;-65
2022/07/13 05:57:59;;;;;;;1.30;0.30;;;;;;;23.61;56.30;101673.53;7390656;19;20011;-66
2022/07/13 06:00:25;;;;;;;1.38;0.40;;;;;;;23.56;56.49;101680.59;7388527;19;20020;-65
2022/07/13 06:02:53;;;;;;;1.95;0.40;;;;;;;23.52;57.00;101680.19;7390228;19;20547;-65
2022/07/13 06:05:21;;;;;;;2.30;0.40;;;;;;;23.48;57.06;101679.00;7388882;19;20698;-66
2022/07/13 06:07:48;;;;;;;2.50;0.40;;;;;;;23.49;56.17;101675.28;7390968;19;20123;-62
2022/07/13 06:10:15;;;;;;;2.00;0.43;;;;;;;23.42;56.91;101675.28;7386399;19;20021;-62
2022/07/13 06:12:42;;;;;;;3.40;0.30;;;;;;;23.42;56.41;101675.28;7388439;19;20113;-65
2022/07/13 06:15:09;;;;;;;0.80;0.30;;;;;;;23.41;56.38;101672.81;7389472;19;20019;-69
2022/07/13 06:17:39;;;;;;;0.80;0.30;;;;;;;23.40;56.59;101685.44;7390346;19;20161;-62
2022/07/13 06:20:07;;;;;;;2.53;0.38;;;;;;;23.43;56.94;101686.84;7388124;19;20022;-64
2022/07/13 06:22:34;;;;;;;3.15;0.40;;;;;;;23.47;56.45;101689.97;7389595;19;20280;-64
2022/07/13 06:25:03;;;;;;;2.25;0.30;;;;;;;23.46;56.39;101680.25;7383921;19;20368;-65
2022/07/13 06:27:36;;;;;;;1.73;0.40;;;;;;;23.49;56.57;101686.03;7389655;19;20034;-65
2022/07/13 06:30:08;;;;;;;2.10;0.70;;;;;;;23.51;55.85;101692.00;7388613;19;20013;-65
2022/07/13 06:32:34;;;;;;;1.33;0.40;;;;;;;23.51;56.24;101683.13;7387142;19;20401;-65
2022/07/13 06:35:02;;;;;;;2.08;0.50;;;;;;;23.50;56.45;101679.59;7387072;19;20534;-67
2022/07/13 06:37:44;;;;;;;1.52;0.75;;;;;;;23.46;56.20;101674.88;7387325;19;20090;-66
2022/07/13 06:40:13;;;;;;;2.88;0.40;;;;;;;23.45;55.75;101682.13;7385946;19;20018;-65
2022/07/13 06:42:42;;;;;;;1.85;0.30;;;;;;;23.37;55.84;101672.41;7384890;19;20431;-66
2022/07/13 06:45:09;;;;;;;1.40;0.52;;;;;;;23.36;56.63;101672.66;7386867;19;20011;-67
2022/07/13 06:47:40;;;;;;;17.20;7.18;;;;;;;23.36;57.06;101673.47;7389589;19;20021;-66
2022/07/13 06:50:07;;;;;;;1.70;0.73;;;;;;;23.38;56.86;101671.38;7384749;19;20641;-66
2022/07/13 06:52:37;;;;;;;0.90;0.40;;;;;;;23.36;57.02;101660.03;7386757;19;20006;-67
2022/07/13 06:55:04;;;;;;;2.88;0.40;;;;;;;23.36;56.40;101661.91;7385532;19;20018;-67
2022/07/13 06:57:42;;;;;;;1.05;0.40;;;;;;;23.41;56.23;101664.75;7387671;19;20903;-67
2022/07/13 07:00:24;;;;;;;3.17;0.40;;;;;;;23.46;56.55;101666.81;7388067;19;20609;-67
2022/07/13 07:02:52;;;;;;;1.33;0.40;;;;;;;23.53;56.62;101672.97;7389595;19;20031;-67
2022/07/13 07:05:20;;;;;;;2.35;0.45;;;;;;;23.56;55.69;101668.00;7386641;19;20015;-66
2022/07/13 07:07:50;;;;;;;2.95;0.47;;;;;;;23.59;55.62;101669.41;7388463;19;20037;-67
2022/07/13 07:10:16;;;;;;;1.98;0.40;;;;;;;23.62;55.70;101671.69;7384823;19;20078;-66
2022/07/13 07:12:43;;;;;;;1.20;0.38;;;;;;;23.66;55.81;101681.78;7388416;19;20082;-67
2022/07/13 07:15:10;;;;;;;0.70;0.43;;;;;;;23.70;55.16;101682.16;7385355;19;20014;-66
2022/07/13 07:17:50;;;;;;;1.13;0.38;;;;;;;23.72;55.46;101682.78;7383521;19;20487;-62
2022/07/13 07:20:18;;;;;;;4.20;0.50;;;;;;;23.73;55.40;101690.59;7384351;19;20119;-64
2022/07/13 07:22:46;;;;;;;3.47;0.77;;;;;;;23.75;55.31;101687.69;7387745;19;20010;-64
2022/07/13 07:25:15;;;;;;;0.98;0.30;;;;;;;23.77;55.06;101691.81;7383774;19;20007;-64
2022/07/13 07:27:45;;;;;;;6.57;0.70;;;;;;;23.81;55.17;101693.03;7384511;19;20025;-62
2022/07/13 07:30:12;;;;;;;4.35;0.40;;;;;;;23.84;55.55;101692.59;7387989;19;20010;-63
2022/07/13 07:32:39;;;;;;;3.25;0.45;;;;;;;23.89;55.19;101694.63;7385435;19;20011;-62
2022/07/13 07:35:07;;;;;;;0.75;0.30;;;;;;;23.92;54.46;101688.00;7382878;19;20011;-62
2022/07/13 07:37:41;;;;;;;2.78;0.40;;;;;;;23.92;54.03;101683.44;7384197;19;20018;-63
2022/07/13 07:40:11;;;;;;;1.58;0.40;;;;;;;23.88;53.68;101691.09;7382752;19;20014;-64
2022/07/13 07:42:39;;;;;;;0.95;0.30;;;;;;;23.90;54.88;101690.88;7384399;19;20022;-63
2022/07/13 07:45:08;;;;;;;1.38;0.50;;;;;;;23.95;54.10;101693.75;7384388;19;20014;-63
2022/07/13 07:47:44;;;;;;;3.72;0.30;;;;;;;23.97;54.28;101683.59;7386372;19;20476;-63
2022/07/13 07:50:11;;;;;;;1.70;0.30;;;;;;;24.03;55.24;101682.69;7382558;19;20021;-62
2022/07/13 07:52:38;;;;;;;1.50;0.40;;;;;;;24.21;54.39;101673.88;7382518;19;20333;-64
2022/07/13 07:55:22;;;;;;;1.20;0.50;;;;;;;24.37;54.13;101681.38;7381334;19;20025;-63
2022/07/13 07:57:50;;;;;;;1.35;0.40;;;;;;;24.47;54.11;101678.19;7387172;19;20006;-63
2022/07/13 08:00:17;;;;;;;2.25;0.50;;;;;;;24.56;53.93;101682.22;7385796;19;20668;-62
2022/07/13 08:02:45;;;;;;;1.30;0.30;;;;;;;24.60;53.89;101686.09;7383825;19;20010;-63
2022/07/13 08:05:14;;;;;;;1.85;0.50;;;;;;;24.62;53.69;101684.84;7355825;19;20011;-62
2022/07/13 08:07:43;;;;;;;1.35;0.40;;;;;;;24.64;53.35;101679.22;7378691;19;20414;-63
2022/07/13 08:10:14;;;;;;;4.68;0.40;;;;;;;24.65;53.53;101688.94;7382010;19;20018;-63
2022/07/13 08:12:58;;;;;;;3.67;0.50;;;;;;;24.76;52.79;101681.97;7383906;19;20018;-63
2022/07/13 08:15:27;;;;;;;1.80;0.35;;;;;;;24.72;53.14;101681.63;7379586;19;20079;-65
2022/07/13 08:17:55;;;;;;;1.65;0.40;;;;;;;24.71;53.43;101680.78;7385506;19;20131;-66
2022/07/13 08:20:23;;;;;;;3.17;0.50;;;;;;;24.71;52.80;101666.50;7382175;19;20026;-65
2022/07/13 08:22:51;;;;;;;1.65;0.32;;;;;;;24.76;53.14;101672.03;7383730;19;20022;-66
2022/07/13 08:25:19;;;;;;;4.05;0.40;;;;;;;24.79;52.58;101676.97;7381124;19;20463;-66
2022/07/13 08:27:46;;;;;;;2.10;0.40;;;;;;;24.85;52.74;101677.94;7383271;19;20554;-66
2022/07/13 08:30:13;;;;;;;2.42;0.50;;;;;;;24.80;52.23;101692.06;7382937;19;20010;-66
2022/07/13 08:32:41;;;;;;;0.93;0.30;;;;;;;24.76;51.86;101687.38;7380454;19;20041;-65
2022/07/13 08:40:41;;;;;;;2.30;0.40;;;;;;;24.64;52.71;101689.97;7380961;19;20014;-65
2022/07/13 08:43:08;;;;;;;2.05;0.40;;;;;;;24.64;52.92;101685.41;7382689;19;20014;-64
2022/07/13 08:45:36;;;;;;;2.13;0.40;;;;;;;24.66;52.75;101677.13;7382256;19;20424;-64
2022/07/13 08:48:15;;;;;;;9.85;0.77;;;;;;;24.67;52.38;101686.84;7384292;19;20074;-65
2022/07/13 08:50:42;;;;;;;3.33;0.40;;;;;;;24.71;52.86;101675.41;7381586;19;20045;-66
2022/07/13 08:53:10;;;;;;;3.47;0.40;;;;;;;24.75;52.95;101686.53;7382053;19;20014;-65
2022/07/13 08:55:39;;;;;;;3.58;0.40;;;;;;;24.77;52.89;101675.56;7381214;19;20354;-65
2022/07/13 08:58:15;;;;;;;1.85;0.40;;;;;;;24.86;52.48;101680.41;7382639;19;20010;-66
2022/07/13 09:00:42;;;;;;;4.97;1.20;;;;;;;24.89;52.44;101677.28;7381214;19;20247;-66
2022/07/13 09:03:10;;;;;;;2.70;0.60;;;;;;;24.93;53.13;101683.06;7380637;19;20022;-67
2022/07/13 09:05:38;;;;;;;2.65;0.40;;;;;;;24.95;53.23;101680.94;7375355;19;20019;-65
2022/07/13 09:08:10;;;;;;;1.48;0.40;;;;;;;24.99;53.02;101682.16;7379692;19;20014;-64
2022/07/13 09:10:57;;;;;;;1.15;0.40;;;;;;;25.00;52.75;101689.16;7379347;19;20026;-62
2022/07/13 09:13:45;;;;;;;3.33;0.40;;;;;;;25.02;52.58;101685.22;7381646;19;20099;-62
2022/07/13 09:16:13;;;;;;;0.93;0.30;;;;;;;25.11;52.56;101696.47;7381101;19;20021;-63
2022/07/13 09:18:41;;;;;;;1.48;0.40;;;;;;;25.13;51.79;101702.47;7382204;19;20021;-67
2022/07/13 09:21:09;;;;;;;2.13;0.40;;;;;;;25.15;52.65;101711.16;7380897;19;20600;-63
2022/07/13 09:23:37;;;;;;;1.50;0.40;;;;;;;25.13;53.17;101697.91;7377728;19;20051;-62
2022/07/13 09:26:05;;;;;;;1.60;0.40;;;;;;;25.15;53.67;101697.66;7382428;19;20048;-63
2022/07/13 09:28:46;;;;;;;3.40;0.50;;;;;;;25.17;53.51;101703.66;7381292;19;20015;-62
2022/07/13 09:31:16;;;;;;;2.72;0.50;;;;;;;25.31;52.82;101704.31;7380586;19;20018;-63
2022/07/13 09:33:46;;;;;;;4.20;0.50;;;;;;;25.34;53.11;101704.69;7382585;19;20032;-65
2022/07/13 09:36:15;;;;;;;0.90;0.38;;;;;;;25.35;53.01;101698.22;7380165;19;20359;-65
2022/07/13 09:38:44;;;;;;;2.28;0.60;;;;;;;25.36;53.06;101704.44;7376397;19;20021;-65
2022/07/13 09:41:13;;;;;;;4.53;0.55;;;;;;;25.38;53.30;101715.81;7380539;19;20017;-65
2022/07/13 09:47:00;;;;;;;3.05;0.70;;;;;;;25.49;52.72;101713.19;7379624;19;20102;-65
2022/07/13 09:49:52;;;;;;;11.18;4.03;;;;;;;25.57;52.25;101717.44;7372850;19;20018;-65
2022/07/13 09:52:19;;;;;;;7.70;1.95;;;;;;;25.58;51.53;101719.09;7378294;19;20039;-66
2022/07/13 09:54:51;;;;;;;1.77;0.52;;;;;;;25.60;51.55;101714.28;7379537;19;20420;-66
2022/07/13 09:57:21;;;;;;;2.65;0.40;;;;;;;25.69;52.44;101718.31;7381759;19;20014;-66
2022/07/13 09:59:49;;;;;;;15.48;4.78;;;;;;;25.79;52.75;101712.34;7380349;19;20081;-67
2022/07/13 10:02:16;;;;;;;8.07;1.77;;;;;;;25.88;52.04;101719.88;7380027;19;20128;-66
2022/07/13 10:04:43;;;;;;;7.40;0.90;;;;;;;25.97;51.15;101715.75;7378851;19;20014;-65
2022/07/13 10:07:16;;;;;;;14.65;2.33;;;;;;;26.01;52.88;101712.63;7374966;19;20023;-68
2022/07/13 10:09:43;;;;;;;15.55;3.33;;;;;;;26.06;53.15;101712.75;7380144;19;20716;-64
2022/07/13 10:12:10;;;;;;;4.18;0.88;;;;;;;26.10;52.75;101722.84;7385795;19;20030;-64
2022/07/13 10:14:38;;;;;;;7.53;1.45;;;;;;;26.13;53.16;101724.22;7387934;19;20014;-64
2022/07/13 10:17:16;;;;;;;4.57;0.85;;;;;;;26.13;53.43;101729.63;7388716;19;20022;-69
2022/07/13 10:20:11;;;;;;;3.13;0.70;;;;;;;26.17;53.23;101731.63;7366607;19;20026;-65
2022/07/13 10:22:46;;;;;;;9.40;1.50;;;;;;;26.20;53.33;101727.66;7387562;19;20025;-65
2022/07/13 10:25:13;;;;;;;4.90;0.90;;;;;;;26.29;51.85;101737.88;7380457;19;20082;-65
2022/07/13 10:27:42;;;;;;;4.57;1.10;;;;;;;26.42;51.13;101736.00;7383708;19;20328;-65
2022/07/13 10:30:18;;;;;;;2.60;0.80;;;;;;;26.38;51.07;101728.38;7380452;19;20014;-65
2022/07/13 10:32:46;;;;;;;2.50;0.70;;;;;;;26.39;51.14;101732.72;7387254;19;20018;-66
2022/07/13 10:35:16;;;;;;;2.35;0.60;;;;;;;26.38;51.01;101732.94;7386517;19;20031;-69
2022/07/13 10:37:56;;;;;;;2.78;0.80;;;;;;;26.37;50.56;101740.22;7384840;19;20123;-64
2022/07/13 10:40:33;;;;;;;3.90;0.77;;;;;;;26.45;50.48;101735.53;7384143;19;20018;-66
2022/07/13 10:43:09;;;;;;;3.08;0.80;;;;;;;26.45;50.51;101736.38;7385579;19;20020;-66
2022/07/13 10:45:41;;;;;;;4.97;0.70;;;;;;;26.49;50.74;101732.13;7384317;19;20050;-66
2022/07/13 10:48:32;;;;;;;2.17;0.80;;;;;;;26.51;50.73;101737.31;7379054;19;20820;-66
2022/07/13 10:51:00;;;;;;;2.05;0.57;;;;;;;26.50;50.87;101736.47;7379830;19;20443;-65
2022/07/13 10:53:40;;;;;;;4.47;0.68;;;;;;;26.56;49.83;101750.91;7383395;19;20090;-66
2022/07/13 10:56:17;;;;;;;3.08;0.70;;;;;;;26.57;49.98;101744.44;7380802;19;20023;-66
2022/07/13 10:58:49;;;;;;;1.38;0.57;;;;;;;26.50;50.72;101743.75;7384028;19;20027;-65
2022/07/13 11:01:36;;;;;;;6.72;0.65;;;;;;;26.55;50.82;101743.88;7384188;19;20032;-66
2022/07/13 11:04:05;;;;;;;3.10;0.57;;;;;;;26.55;49.09;101744.69;7384828;19;20361;-65
2022/07/13 11:06:32;;;;;;;2.65;0.50;;;;;;;26.56;49.53;101750.91;7384577;19;20039;-64
2022/07/13 11:09:20;;;;;;;2.67;0.50;;;;;;;26.63;50.01;101748.91;7384131;19;20021;-65
2022/07/13 11:11:53;;;;;;;2.97;0.55;;;;;;;26.69;48.17;101748.78;7381559;19;20035;-66
2022/07/13 11:14:35;;;;;;;1.13;0.60;;;;;;;26.69;48.45;101737.16;7384642;19;20027;-67
2022/07/13 11:17:12;;;;;;;1.98;0.50;;;;;;;26.73;48.35;101744.53;7383948;19;20018;-64
2022/07/13 11:19:58;;;;;;;5.03;0.63;;;;;;;26.69;49.21;101742.56;7384774;19;20707;-66
2022/07/13 11:25:13;;;;;;;1.10;0.40;;;;;;;26.60;49.07;101747.50;7386635;19;20016;-66
2022/07/13 11:25:38;;;;;;;4.85;0.77;;;;;;;26.50;50.31;101747.28;7380533;19;20396;-65
2022/07/13 11:28:32;;;;;;;2.03;0.50;;;;;;;26.43;49.69;101748.44;7383734;19;20021;-66
2022/07/13 11:31:03;;;;;;;2.13;0.70;;;;;;;26.36;50.06;101743.97;7377535;19;20028;-66
2022/07/13 11:33:30;;;;;;;3.38;0.60;;;;;;;26.29;50.47;101742.47;7384559;19;20424;-65
2022/07/13 11:35:59;;;;;;;2.60;0.50;;;;;;;26.23;50.58;101741.53;7379271;19;20022;-66
2022/07/13 11:38:34;;;;;;;2.15;0.50;;;;;;;26.23;50.87;101740.69;7380360;19;20018;-65
2022/07/13 11:41:02;;;;;;;4.53;0.60;;;;;;;26.22;50.70;101739.88;7381889;19;20042;-65
2022/07/13 11:43:29;;;;;;;1.85;0.70;;;;;;;26.28;50.41;101740.81;7383525;19;20337;-66